Time;durP1;ratioP1;P1;durP2;ratioP2;P2;SDS_P1;SDS_P2;PMS_P1;PMS_P2;Temp;Humidity;BMP_temperature;BMP_pressure;BME280_temperature;BME280_humidity;BME280_pressure;Samples;Min_cycle;Max_cycle;Signal;HPM_P1;HPM_P2
2023/01/15 00:00:24;;;;;;;209.50;59.63;;;9.40;99.90;;;;;;5029630;28;20202;-51
2023/01/15 00:02:55;;;;;;;492.80;122.63;;;9.30;99.90;;;;;;5029114;28;20235;-51
2023/01/15 00:05:23;;;;;;;1285.67;246.83;;;9.30;99.90;;;;;;5034954;28;20221;-51
2023/01/15 00:07:52;;;;;;;41.80;17.73;;;9.30;99.90;;;;;;5045858;28;20699;-51
2023/01/15 00:10:20;;;;;;;864.27;123.90;;;9.30;99.90;;;;;;5041225;28;20651;-51
2023/01/15 00:12:48;;;;;;;156.40;46.97;;;9.30;99.90;;;;;;5043578;28;20205;-51
2023/01/15 00:15:16;;;;;;;486.80;95.17;;;9.30;99.90;;;;;;5043281;28;20275;-51
2023/01/15 00:17:45;;;;;;;1999.90;271.43;;;9.30;99.90;;;;;;5038836;28;20242;-52
2023/01/15 00:20:14;;;;;;;103.57;34.00;;;9.20;99.90;;;;;;5041440;28;20256;-51
2023/01/15 00:22:42;;;;;;;388.80;73.07;;;9.10;99.90;;;;;;5042302;28;20755;-51
2023/01/15 00:27:56;;;;;;;60.03;27.70;;;9.20;99.90;;;;;;5031936;28;20251;-51
2023/01/15 00:30:25;;;;;;;978.00;139.57;;;9.20;99.90;;;;;;5043880;28;20364;-52
2023/01/15 00:32:53;;;;;;;1984.17;404.30;;;9.20;99.90;;;;;;5039984;28;20250;-52
2023/01/15 00:35:23;;;;;;;1999.90;296.53;;;9.20;99.90;;;;;;5039764;28;20852;-51
2023/01/15 00:37:52;;;;;;;1281.60;168.93;;;9.10;99.90;;;;;;5035411;28;20245;-51
2023/01/15 00:40:22;;;;;;;588.97;82.53;;;9.10;99.90;;;;;;5042072;28;20281;-51
2023/01/15 00:42:50;;;;;;;476.20;96.10;;;9.10;99.90;;;;;;5028349;28;20236;-51
2023/01/15 00:45:21;;;;;;;772.53;135.53;;;9.00;99.90;;;;;;5026712;28;20210;-51
2023/01/15 00:47:50;;;;;;;584.83;99.47;;;9.00;99.90;;;;;;5028755;28;20241;-51
2023/01/15 00:50:18;;;;;;;1063.43;198.27;;;9.00;99.90;;;;;;5028836;28;20305;-51
2023/01/15 00:52:47;;;;;;;1999.90;435.57;;;9.00;99.90;;;;;;5028059;28;20747;-51
2023/01/15 00:55:15;;;;;;;1999.90;550.23;;;9.00;99.90;;;;;;5028534;28;20244;-51
2023/01/15 00:57:43;;;;;;;1115.53;140.90;;;9.00;99.90;;;;;;5029091;28;20639;-51
2023/01/15 01:00:12;;;;;;;720.27;96.17;;;9.00;99.90;;;;;;5028487;28;20237;-51
2023/01/15 01:02:40;;;;;;;660.17;159.77;;;8.90;99.90;;;;;;5021828;28;20233;-51
2023/01/15 01:05:09;;;;;;;691.77;134.73;;;8.90;99.90;;;;;;5028556;28;20701;-51
2023/01/15 01:07:37;;;;;;;271.30;58.67;;;8.90;99.90;;;;;;5016366;28;20235;-51
2023/01/15 01:10:08;;;;;;;1689.43;332.43;;;8.90;99.90;;;;;;5028344;28;20716;-50
2023/01/15 01:12:36;;;;;;;1439.47;201.17;;;8.90;99.90;;;;;;5028125;28;20279;-51
2023/01/15 01:15:05;;;;;;;573.03;110.53;;;8.90;99.90;;;;;;5027251;28;20679;-51
2023/01/15 01:17:33;;;;;;;756.13;136.43;;;8.80;99.90;;;;;;5027783;28;20225;-51
2023/01/15 01:20:01;;;;;;;506.23;131.43;;;8.80;99.90;;;;;;5019885;28;20309;-51
2023/01/15 01:22:32;;;;;;;980.80;126.20;;;8.80;99.90;;;;;;5028334;28;20241;-51
2023/01/15 01:25:00;;;;;;;1810.00;265.53;;;8.80;99.90;;;;;;5029342;28;20210;-51
2023/01/15 01:27:29;;;;;;;480.43;123.93;;;8.70;99.90;;;;;;5032109;28;20214;-51
2023/01/15 01:29:57;;;;;;;1776.90;272.47;;;8.70;99.90;;;;;;5032326;28;20308;-51
2023/01/15 01:32:25;;;;;;;1553.80;267.50;;;8.60;99.90;;;;;;5031560;28;20260;-51
2023/01/15 01:34:53;;;;;;;495.90;74.33;;;8.50;99.90;;;;;;5032309;28;20276;-51
2023/01/15 01:37:21;;;;;;;522.00;158.20;;;8.50;99.90;;;;;;5031708;28;20246;-51
2023/01/15 01:39:49;;;;;;;408.30;119.70;;;8.40;99.90;;;;;;5023934;28;20913;-51
2023/01/15 01:42:18;;;;;;;845.47;122.13;;;8.40;99.90;;;;;;5032001;28;20226;-51
2023/01/15 01:45:08;;;;;;;1463.83;294.50;;;8.30;99.90;;;;;;5031768;28;20237;-51
2023/01/15 01:47:36;;;;;;;235.93;73.47;;;8.30;99.90;;;;;;5032045;28;20253;-51
2023/01/15 01:50:09;;;;;;;998.17;165.50;;;8.20;99.90;;;;;;5032127;28;20906;-51
2023/01/15 01:52:42;;;;;;;134.03;47.77;;;8.20;99.90;;;;;;5031558;28;20589;-51
2023/01/15 01:55:11;;;;;;;1106.67;158.93;;;8.20;99.90;;;;;;5031055;28;20216;-51
2023/01/15 01:57:40;;;;;;;506.37;103.07;;;8.20;99.90;;;;;;5032175;28;20591;-51
2023/01/15 02:00:14;;;;;;;339.43;92.67;;;8.20;99.90;;;;;;5031828;28;20292;-51
2023/01/15 02:02:44;;;;;;;1999.90;398.07;;;8.20;99.90;;;;;;5031931;28;20287;-51
2023/01/15 02:05:15;;;;;;;1487.57;246.27;;;8.00;99.90;;;;;;5031960;28;20272;-51
2023/01/15 02:07:45;;;;;;;1999.90;497.47;;;8.00;99.90;;;;;;5030434;28;20242;-51
2023/01/15 02:10:15;;;;;;;1034.53;194.77;;;7.90;99.90;;;;;;5028938;28;20256;-51
2023/01/15 02:12:49;;;;;;;1999.90;425.23;;;7.90;99.90;;;;;;5031481;28;20233;-51
2023/01/15 02:15:26;;;;;;;384.10;108.63;;;7.90;99.90;;;;;;5031567;28;20234;-51
2023/01/15 02:18:00;;;;;;;1132.50;164.80;;;7.80;99.90;;;;;;5031704;28;20201;-51
2023/01/15 02:20:34;;;;;;;1005.07;147.47;;;7.70;99.90;;;;;;5031391;28;20293;-51
2023/01/15 02:23:24;;;;;;;1999.90;653.93;;;7.60;99.90;;;;;;5031559;28;20261;-51
2023/01/15 02:26:05;;;;;;;1999.90;688.13;;;7.70;99.90;;;;;;5020863;28;20698;-51
2023/01/15 02:28:38;;;;;;;1036.63;197.50;;;7.60;99.90;;;;;;5030970;28;20711;-51
2023/01/15 02:31:12;;;;;;;504.67;94.33;;;7.50;99.90;;;;;;5025410;28;20249;-51
2023/01/15 02:33:44;;;;;;;1950.40;319.00;;;7.50;99.90;;;;;;5030291;28;20206;-51
2023/01/15 02:36:16;;;;;;;848.17;161.10;;;7.40;99.90;;;;;;5029844;28;20297;-51
2023/01/15 02:38:48;;;;;;;394.83;89.07;;;7.40;99.90;;;;;;5022777;28;20343;-51
2023/01/15 02:41:18;;;;;;;902.83;143.27;;;7.40;99.90;;;;;;5029446;28;20206;-51
2023/01/15 02:43:53;;;;;;;1340.17;194.00;;;7.30;99.90;;;;;;5030625;28;20210;-51
2023/01/15 02:46:24;;;;;;;710.00;131.90;;;7.20;99.90;;;;;;5025150;28;20210;-51
2023/01/15 02:48:54;;;;;;;1964.73;320.77;;;7.20;99.90;;;;;;5030494;28;20325;-51
2023/01/15 02:51:25;;;;;;;1768.87;331.50;;;7.20;99.90;;;;;;5030089;28;20237;-51
2023/01/15 02:53:57;;;;;;;32.83;22.33;;;7.10;99.90;;;;;;5014865;28;20249;-51
2023/01/15 02:56:30;;;;;;;810.73;159.47;;;7.10;99.90;;;;;;5023816;28;20240;-51
2023/01/15 02:59:06;;;;;;;147.60;60.40;;;7.10;99.90;;;;;;5017446;28;20245;-51
2023/01/15 03:01:40;;;;;;;382.73;76.47;;;7.10;99.90;;;;;;5030572;28;20293;-51
2023/01/15 03:04:13;;;;;;;635.13;154.07;;;7.00;99.90;;;;;;5018928;28;20205;-51
2023/01/15 03:06:46;;;;;;;1339.43;261.93;;;7.00;99.90;;;;;;5030466;28;20249;-51
2023/01/15 03:09:15;;;;;;;1999.90;717.07;;;7.00;99.90;;;;;;5017276;28;20292;-51
2023/01/15 03:11:47;;;;;;;1999.90;625.57;;;7.00;99.90;;;;;;5018486;28;20243;-51
2023/01/15 03:14:21;;;;;;;345.73;102.10;;;6.80;99.90;;;;;;5016131;28;20216;-51
2023/01/15 03:16:53;;;;;;;1027.80;202.60;;;6.90;99.90;;;;;;5024097;28;20307;-51
2023/01/15 03:19:26;;;;;;;566.63;122.70;;;6.80;99.90;;;;;;5030630;28;20268;-51
2023/01/15 03:21:58;;;;;;;1179.43;291.10;;;6.80;99.90;;;;;;5031041;28;20320;-51
2023/01/15 03:24:31;;;;;;;208.07;84.70;;;6.70;99.90;;;;;;5023605;28;20288;-51
2023/01/15 03:27:00;;;;;;;177.40;61.77;;;6.70;99.90;;;;;;5030813;28;20217;-51
2023/01/15 03:29:32;;;;;;;287.43;107.67;;;6.70;99.90;;;;;;5030519;28;20268;-51
2023/01/15 03:32:01;;;;;;;1948.17;559.87;;;6.70;99.90;;;;;;5022422;28;20254;-51
2023/01/15 03:34:34;;;;;;;37.33;33.30;;;6.70;99.90;;;;;;5030687;28;20620;-51
2023/01/15 03:37:02;;;;;;;1999.90;695.30;;;6.80;99.90;;;;;;5029744;28;20249;-51
2023/01/15 03:39:30;;;;;;;77.03;51.53;;;6.80;99.90;;;;;;5030097;28;20256;-51
2023/01/15 03:42:08;;;;;;;1931.37;368.50;;;6.70;99.90;;;;;;5029778;28;20213;-51
2023/01/15 03:44:42;;;;;;;81.67;57.40;;;6.80;99.90;;;;;;5030056;28;20247;-51
2023/01/15 03:47:23;;;;;;;50.17;39.33;;;6.70;99.90;;;;;;5028912;28;20253;-51
2023/01/15 03:49:58;;;;;;;187.73;76.63;;;6.80;99.90;;;;;;5026572;28;20647;-50
2023/01/15 03:52:31;;;;;;;30.93;28.00;;;6.80;99.90;;;;;;5026469;28;20561;-50
2023/01/15 03:55:07;;;;;;;58.60;42.17;;;6.80;99.90;;;;;;5016476;28;20285;-50
2023/01/15 03:57:40;;;;;;;697.57;161.77;;;6.80;99.90;;;;;;5018976;28;20305;-51
2023/01/15 04:00:16;;;;;;;167.17;79.47;;;6.80;99.90;;;;;;5016678;28;20300;-52
2023/01/15 04:02:46;;;;;;;68.83;51.53;;;6.70;99.90;;;;;;5029957;28;20639;-52
2023/01/15 04:05:16;;;;;;;147.40;94.27;;;6.60;99.90;;;;;;5029692;28;20627;-51
2023/01/15 04:07:45;;;;;;;29.50;23.87;;;6.60;99.90;;;;;;5029655;28;20235;-51
2023/01/15 04:10:14;;;;;;;239.07;115.23;;;6.60;99.90;;;;;;5029303;28;20653;-50
2023/01/15 04:12:42;;;;;;;33.00;22.67;;;6.50;99.90;;;;;;5029422;28;20316;-51
2023/01/15 04:15:12;;;;;;;55.80;38.90;;;6.50;99.90;;;;;;5029498;28;20205;-51
2023/01/15 04:17:40;;;;;;;41.60;34.20;;;6.50;99.90;;;;;;5027914;28;20255;-52
2023/01/15 04:20:10;;;;;;;76.90;45.97;;;6.50;99.90;;;;;;5028027;28;20313;-52
2023/01/15 04:22:38;;;;;;;303.13;99.47;;;6.50;99.90;;;;;;5029192;28;20653;-51
2023/01/15 04:25:07;;;;;;;58.60;45.70;;;6.50;99.90;;;;;;5029253;28;20264;-51
2023/01/15 04:27:35;;;;;;;123.23;67.33;;;6.50;99.90;;;;;;5019056;28;20241;-52
2023/01/15 04:30:04;;;;;;;155.70;109.03;;;6.50;99.90;;;;;;5029168;28;20265;-51
2023/01/15 04:32:33;;;;;;;31.87;27.13;;;6.40;99.90;;;;;;5015420;28;20267;-51
2023/01/15 04:35:01;;;;;;;40.20;35.73;;;6.50;99.90;;;;;;5028994;28;20295;-51
2023/01/15 04:37:29;;;;;;;1287.80;274.97;;;6.50;99.90;;;;;;5028634;28;20205;-51
2023/01/15 04:39:57;;;;;;;1527.50;335.10;;;6.50;99.90;;;;;;5029400;28;20229;-52
2023/01/15 04:45:11;;;;;;;465.70;124.67;;;6.30;99.90;;;;;;5029144;28;20249;-52
2023/01/15 04:47:41;;;;;;;98.13;63.93;;;6.40;99.90;;;;;;5028865;28;20243;-52
2023/01/15 04:50:10;;;;;;;78.90;57.47;;;6.30;99.90;;;;;;5029234;28;20285;-52
2023/01/15 04:52:38;;;;;;;94.80;57.10;;;6.30;99.90;;;;;;5028107;28;20237;-51
2023/01/15 04:55:07;;;;;;;220.23;73.97;;;6.30;99.90;;;;;;5029011;28;20591;-51
2023/01/15 04:57:35;;;;;;;226.90;68.97;;;6.30;99.90;;;;;;5029124;28;20216;-51
2023/01/15 05:00:04;;;;;;;71.27;62.37;;;6.40;99.90;;;;;;5030142;28;20260;-51
2023/01/15 05:02:32;;;;;;;138.23;44.17;;;6.30;99.90;;;;;;5032854;28;20270;-50
2023/01/15 05:05:02;;;;;;;89.17;41.90;;;6.40;99.90;;;;;;5032985;28;20207;-52
2023/01/15 05:07:30;;;;;;;299.60;86.57;;;6.30;99.90;;;;;;5032714;28;20209;-52
2023/01/15 05:09:58;;;;;;;72.00;64.23;;;6.40;99.90;;;;;;5019005;28;20351;-51
2023/01/15 05:12:26;;;;;;;490.47;113.20;;;6.30;99.90;;;;;;5032611;28;20302;-51
2023/01/15 05:14:54;;;;;;;999.40;193.87;;;6.30;99.90;;;;;;5032990;28;20261;-51
2023/01/15 05:17:22;;;;;;;1515.33;304.73;;;6.20;99.90;;;;;;5032795;28;20296;-51
2023/01/15 05:19:50;;;;;;;976.83;194.90;;;6.20;99.90;;;;;;5032704;28;20265;-51
2023/01/15 05:22:19;;;;;;;55.93;38.60;;;6.10;99.90;;;;;;5032572;28;20256;-51
2023/01/15 05:24:47;;;;;;;1119.33;256.50;;;6.10;99.90;;;;;;5032573;28;20203;-51
2023/01/15 05:27:15;;;;;;;103.70;42.90;;;6.10;99.90;;;;;;5032444;28;20208;-50
2023/01/15 05:29:43;;;;;;;148.80;74.37;;;6.10;99.90;;;;;;5032167;28;20790;-51
2023/01/15 05:32:11;;;;;;;794.67;156.80;;;6.20;99.90;;;;;;5031780;28;20242;-50
2023/01/15 05:34:39;;;;;;;34.60;23.23;;;6.20;99.90;;;;;;5032637;28;20307;-52
2023/01/15 05:37:07;;;;;;;58.93;33.13;;;6.10;99.90;;;;;;5031725;28;20293;-52
2023/01/15 05:39:37;;;;;;;649.17;174.13;;;6.10;99.90;;;;;;5032289;28;20262;-51
2023/01/15 05:42:06;;;;;;;137.30;42.90;;;5.90;99.90;;;;;;5020433;28;20248;-51
2023/01/15 05:44:34;;;;;;;646.30;108.50;;;5.80;99.90;;;;;;5032400;28;20679;-51
2023/01/15 05:47:06;;;;;;;79.27;33.47;;;5.80;99.90;;;;;;5026117;28;20299;-51
2023/01/15 05:49:34;;;;;;;799.50;177.47;;;5.70;99.90;;;;;;5032289;28;20228;-51
2023/01/15 05:52:02;;;;;;;556.00;108.67;;;5.60;99.90;;;;;;5031716;28;20270;-52
2023/01/15 05:54:32;;;;;;;857.90;132.80;;;5.50;99.90;;;;;;5031830;28;20773;-50
2023/01/15 05:57:02;;;;;;;547.53;154.57;;;5.50;99.90;;;;;;5031984;28;20661;-51
2023/01/15 05:59:31;;;;;;;1855.33;344.73;;;5.50;99.90;;;;;;5031475;28;20223;-51
2023/01/15 06:02:00;;;;;;;1989.57;324.27;;;5.40;99.90;;;;;;5030047;28;20276;-51
2023/01/15 06:04:28;;;;;;;1748.67;369.27;;;5.40;99.90;;;;;;5031387;28;20262;-52
2023/01/15 06:06:57;;;;;;;649.47;124.47;;;5.40;99.90;;;;;;5031930;28;20665;-52
2023/01/15 06:09:26;;;;;;;360.13;104.73;;;5.40;99.90;;;;;;5031516;28;20245;-52
2023/01/15 06:11:55;;;;;;;346.17;84.20;;;5.40;99.90;;;;;;5021752;28;20220;-51
2023/01/15 06:14:24;;;;;;;359.57;73.50;;;5.40;99.90;;;;;;5031618;28;20323;-51
2023/01/15 06:16:52;;;;;;;181.13;75.23;;;5.40;99.90;;;;;;5031893;28;20243;-51
2023/01/15 06:19:20;;;;;;;316.53;66.27;;;5.50;99.90;;;;;;5031737;28;20233;-51
2023/01/15 06:21:48;;;;;;;29.70;26.33;;;5.50;99.90;;;;;;5031558;28;20265;-51
2023/01/15 06:24:18;;;;;;;1038.90;211.50;;;5.50;99.90;;;;;;5027103;28;20236;-52
2023/01/15 06:26:47;;;;;;;602.77;119.10;;;5.40;99.90;;;;;;5029334;28;20295;-52
2023/01/15 06:29:17;;;;;;;453.70;94.27;;;5.40;99.90;;;;;;5031506;28;20274;-52
2023/01/15 06:31:48;;;;;;;1971.93;313.00;;;5.40;99.90;;;;;;5031135;28;20684;-52
2023/01/15 06:34:16;;;;;;;551.90;112.07;;;5.30;99.90;;;;;;5031457;28;20223;-52
2023/01/15 06:36:44;;;;;;;497.03;140.60;;;5.30;99.90;;;;;;5027626;28;20304;-52
2023/01/15 06:39:12;;;;;;;871.73;205.30;;;5.30;99.90;;;;;;5030772;28;20276;-52
2023/01/15 06:47:21;;;;;;;1411.57;247.80;;;5.20;99.90;;;;;;5031131;28;20241;-51
2023/01/15 06:49:53;;;;;;;1999.90;521.13;;;5.10;99.90;;;;;;5031226;28;20244;-50
2023/01/15 06:52:22;;;;;;;1401.87;233.70;;;5.10;99.90;;;;;;5029903;28;20698;-51
2023/01/15 06:54:50;;;;;;;1241.93;212.10;;;5.00;99.90;;;;;;5031091;28;20594;-51
2023/01/15 06:57:18;;;;;;;276.10;71.40;;;5.10;99.90;;;;;;5017895;28;20250;-52
2023/01/15 06:59:47;;;;;;;1700.87;264.77;;;5.20;99.90;;;;;;5025834;28;20237;-51
2023/01/15 07:02:17;;;;;;;725.70;122.80;;;5.20;99.90;;;;;;5025701;28;20206;-51
2023/01/15 07:04:45;;;;;;;1873.50;313.10;;;5.20;99.90;;;;;;5039766;28;20199;-51
2023/01/15 07:07:14;;;;;;;923.80;170.23;;;5.10;99.90;;;;;;5049301;28;20261;-52
2023/01/15 07:09:42;;;;;;;355.53;72.73;;;5.10;99.90;;;;;;5028973;28;20656;-52
2023/01/15 07:12:10;;;;;;;161.17;53.53;;;5.10;99.90;;;;;;5046395;28;20209;-52
2023/01/15 07:14:38;;;;;;;336.27;117.97;;;5.00;99.90;;;;;;5047121;28;20265;-52
2023/01/15 07:17:06;;;;;;;954.17;158.43;;;5.00;99.90;;;;;;5044588;28;20267;-52
2023/01/15 07:19:36;;;;;;;500.60;101.50;;;5.10;99.90;;;;;;5043930;28;20855;-51
2023/01/15 07:22:04;;;;;;;472.80;109.50;;;5.10;99.90;;;;;;5046440;28;20205;-51
2023/01/15 07:24:32;;;;;;;1708.77;296.37;;;5.10;99.90;;;;;;5040106;28;20242;-52
2023/01/15 07:27:00;;;;;;;1285.17;225.20;;;5.10;99.90;;;;;;5048057;28;20644;-52
2023/01/15 07:29:28;;;;;;;53.67;34.47;;;5.10;99.90;;;;;;5049184;28;20265;-52
2023/01/15 07:31:58;;;;;;;1810.47;291.33;;;5.10;99.90;;;;;;5047773;28;20198;-52
2023/01/15 07:34:26;;;;;;;1156.93;181.40;;;5.00;99.90;;;;;;5047238;28;20328;-52
2023/01/15 07:36:55;;;;;;;581.27;149.07;;;5.00;99.90;;;;;;5044896;28;20201;-51
2023/01/15 07:39:23;;;;;;;49.23;43.83;;;5.00;99.90;;;;;;5047936;28;20316;-51
2023/01/15 07:50:12;;;;;;;628.10;140.40;;;5.00;99.90;;;;;;5044237;28;20201;-51
2023/01/15 07:52:41;;;;;;;296.13;101.90;;;4.90;99.90;;;;;;5042140;28;20238;-51
2023/01/15 07:55:11;;;;;;;145.03;67.13;;;5.00;99.90;;;;;;5046744;28;20280;-51
2023/01/15 07:57:40;;;;;;;514.47;100.33;;;5.00;99.90;;;;;;5044100;28;20305;-51
2023/01/15 08:00:10;;;;;;;1796.43;252.13;;;5.00;99.90;;;;;;5039559;28;20234;-52
2023/01/15 08:02:39;;;;;;;775.87;188.10;;;5.00;99.90;;;;;;5028143;28;20201;-51
2023/01/15 08:05:08;;;;;;;1036.13;248.67;;;5.00;99.90;;;;;;5019259;28;20220;-50
2023/01/15 08:07:37;;;;;;;538.40;104.53;;;5.00;99.90;;;;;;5024198;28;20219;-51
2023/01/15 08:10:08;;;;;;;1621.37;233.63;;;5.10;99.90;;;;;;5018272;28;20367;-51
2023/01/15 08:15:24;;;;;;;87.40;51.27;;;5.20;99.90;;;;;;5024368;28;20227;-51
2023/01/15 08:17:53;;;;;;;27.17;22.63;;;5.20;99.90;;;;;;5026443;28;20239;-52
2023/01/15 08:20:24;;;;;;;1292.37;183.27;;;5.20;99.90;;;;;;5028909;28;20207;-51
2023/01/15 08:22:52;;;;;;;484.23;156.70;;;5.20;99.90;;;;;;5029158;28;20204;-52
2023/01/15 08:25:24;;;;;;;709.27;158.97;;;5.10;99.90;;;;;;5016154;28;20294;-52
2023/01/15 08:27:53;;;;;;;480.80;102.83;;;5.10;99.90;;;;;;5029227;28;20215;-51
2023/01/15 08:30:24;;;;;;;319.07;99.03;;;5.00;99.90;;;;;;5029410;28;20241;-51
2023/01/15 08:32:52;;;;;;;625.60;164.40;;;5.00;99.90;;;;;;5028346;28;20208;-53
2023/01/15 08:35:20;;;;;;;1677.53;280.90;;;5.10;99.90;;;;;;5029225;28;20792;-52
2023/01/15 08:37:48;;;;;;;285.97;83.27;;;5.00;99.90;;;;;;5029059;28;20687;-53
2023/01/15 08:40:17;;;;;;;1591.40;282.63;;;5.00;99.90;;;;;;5038148;28;20202;-52
2023/01/15 08:42:46;;;;;;;1860.00;302.40;;;5.00;99.90;;;;;;5036417;28;20250;-52
2023/01/15 08:45:14;;;;;;;1699.80;221.13;;;5.00;99.90;;;;;;5028367;28;20237;-50
2023/01/15 08:47:42;;;;;;;1999.90;417.47;;;5.00;99.90;;;;;;5029102;28;20661;-51
2023/01/15 08:50:11;;;;;;;467.63;141.67;;;5.00;99.90;;;;;;5028813;28;20244;-51
2023/01/15 08:52:40;;;;;;;1454.37;226.67;;;5.00;99.90;;;;;;5028614;28;20272;-53
2023/01/15 08:55:08;;;;;;;546.20;118.93;;;5.10;99.90;;;;;;5027322;28;20227;-53
2023/01/15 08:57:37;;;;;;;1151.70;205.13;;;5.10;99.90;;;;;;5028770;28;20207;-52
2023/01/15 09:00:09;;;;;;;1553.30;252.30;;;5.10;99.90;;;;;;5029294;28;20226;-52
2023/01/15 09:02:38;;;;;;;486.87;144.70;;;5.10;99.90;;;;;;5035108;28;20237;-51
2023/01/15 09:05:06;;;;;;;1050.33;144.07;;;5.10;99.90;;;;;;5044181;28;20233;-53
2023/01/15 09:07:35;;;;;;;147.73;63.53;;;5.10;99.90;;;;;;5040553;28;20220;-51
2023/01/15 09:10:04;;;;;;;552.93;141.37;;;5.20;99.90;;;;;;5037482;28;20329;-51
2023/01/15 09:12:32;;;;;;;119.53;48.43;;;5.20;99.90;;;;;;5027532;28;20204;-52
2023/01/15 09:15:01;;;;;;;1581.93;218.13;;;5.10;99.90;;;;;;5029910;28;20233;-52
2023/01/15 09:17:32;;;;;;;1294.10;239.03;;;5.20;99.90;;;;;;5021465;28;20208;-52
2023/01/15 09:20:01;;;;;;;425.93;66.47;;;5.20;99.90;;;;;;5027148;28;20258;-52
2023/01/15 09:22:30;;;;;;;1007.47;191.20;;;5.20;99.90;;;;;;5024592;28;20212;-51
2023/01/15 09:24:58;;;;;;;567.67;109.27;;;5.10;99.90;;;;;;5027008;28;20214;-51
2023/01/15 09:27:26;;;;;;;332.10;103.87;;;5.20;99.90;;;;;;5028164;28;20690;-51
2023/01/15 09:29:55;;;;;;;1580.47;300.13;;;5.20;99.90;;;;;;5028748;28;20230;-52
2023/01/15 09:32:23;;;;;;;1999.90;522.10;;;5.10;99.90;;;;;;5014472;28;20209;-52
2023/01/15 09:34:53;;;;;;;1277.03;304.87;;;5.10;99.90;;;;;;5028992;28;20294;-52
2023/01/15 09:37:21;;;;;;;777.67;188.27;;;5.10;99.90;;;;;;5030753;28;20233;-52
2023/01/15 09:39:49;;;;;;;1876.40;359.20;;;5.10;99.90;;;;;;5026696;28;20325;-52
2023/01/15 09:42:37;;;;;;;1999.90;352.40;;;5.10;99.90;;;;;;5026182;28;20760;-52
2023/01/15 09:45:16;;;;;;;1094.03;154.47;;;5.00;99.90;;;;;;5026721;28;20236;-53
2023/01/15 09:47:53;;;;;;;1121.17;180.10;;;5.10;99.90;;;;;;5027627;28;20256;-51
2023/01/15 09:50:34;;;;;;;1999.90;355.80;;;5.00;99.90;;;;;;5029312;28;20635;-51
2023/01/15 09:53:18;;;;;;;1471.47;258.57;;;4.90;99.90;;;;;;5028587;28;20206;-51
2023/01/15 09:55:48;;;;;;;1999.90;541.23;;;5.00;99.90;;;;;;5029679;28;20307;-51
2023/01/15 09:58:19;;;;;;;1390.67;221.67;;;4.90;99.90;;;;;;5029977;28;20225;-52
2023/01/15 10:00:50;;;;;;;671.10;149.87;;;4.90;99.90;;;;;;5030505;28;20241;-51
2023/01/15 10:03:28;;;;;;;1126.00;181.07;;;4.90;99.90;;;;;;5031711;28;20237;-51
2023/01/15 10:06:07;;;;;;;1999.90;350.33;;;5.00;99.90;;;;;;5030936;28;20202;-51
2023/01/15 10:08:38;;;;;;;728.90;168.63;;;5.00;99.90;;;;;;5031837;28;20261;-51
2023/01/15 10:14:43;;;;;;;1999.90;464.07;;;5.10;99.90;;;;;;5031399;28;20253;-52
2023/01/15 10:17:27;;;;;;;899.60;147.63;;;5.10;99.90;;;;;;5031479;28;20700;-50
2023/01/15 10:19:56;;;;;;;153.20;57.27;;;5.10;99.90;;;;;;5029853;28;20262;-51
2023/01/15 10:22:44;;;;;;;984.73;124.67;;;5.20;99.90;;;;;;5031183;28;20300;-51
2023/01/15 10:25:16;;;;;;;462.10;104.57;;;5.30;99.90;;;;;;5031328;28;20274;-52
2023/01/15 10:27:47;;;;;;;473.37;70.10;;;5.40;99.90;;;;;;5031536;28;20235;-52
2023/01/15 10:30:17;;;;;;;658.80;129.07;;;5.30;99.90;;;;;;5031373;28;20211;-52
2023/01/15 10:32:50;;;;;;;187.03;51.80;;;5.20;99.90;;;;;;5046199;28;20216;-51
2023/01/15 10:35:42;;;;;;;1641.77;254.40;;;5.30;99.90;;;;;;5031071;28;20640;-52
2023/01/15 10:38:20;;;;;;;1906.93;382.53;;;5.40;99.90;;;;;;5030614;28;20255;-51
2023/01/15 10:41:16;;;;;;;1251.60;208.53;;;5.30;99.90;;;;;;5031108;28;20237;-51
2023/01/15 10:43:53;;;;;;;423.97;115.70;;;5.20;99.90;;;;;;5025084;28;20233;-52
2023/01/15 10:46:26;;;;;;;1623.20;232.87;;;5.30;99.90;;;;;;5031168;28;20231;-52
2023/01/15 10:48:58;;;;;;;821.70;159.43;;;5.20;99.90;;;;;;5030820;28;20226;-53
2023/01/15 10:51:30;;;;;;;349.23;78.33;;;5.20;99.90;;;;;;5023112;28;20216;-52
2023/01/15 10:54:05;;;;;;;407.10;101.07;;;5.20;99.90;;;;;;5030806;28;20242;-52
2023/01/15 10:56:37;;;;;;;1352.20;198.67;;;5.30;99.90;;;;;;5030800;28;20667;-50
2023/01/15 10:59:12;;;;;;;1366.27;309.47;;;5.20;99.90;;;;;;5020128;28;20278;-51
2023/01/15 11:01:41;;;;;;;346.00;105.20;;;5.20;99.90;;;;;;5030721;28;20203;-53
2023/01/15 11:04:12;;;;;;;1107.93;176.40;;;5.30;99.90;;;;;;5030853;28;20222;-52
2023/01/15 11:06:40;;;;;;;1217.73;228.67;;;5.40;99.90;;;;;;5027089;28;20616;-52
2023/01/15 11:09:21;;;;;;;450.07;151.17;;;5.30;99.90;;;;;;5023787;28;20237;-51
2023/01/15 11:20:25;;;;;;;1129.40;275.43;;;5.40;99.90;;;;;;5024356;28;20249;-52
2023/01/15 11:22:56;;;;;;;1725.30;279.97;;;5.40;99.90;;;;;;5029647;28;20208;-52
2023/01/15 11:25:33;;;;;;;885.03;252.13;;;5.50;99.90;;;;;;5027741;28;20212;-52
2023/01/15 11:28:05;;;;;;;1999.90;494.93;;;5.50;99.90;;;;;;5022657;28;20284;-52
2023/01/15 11:30:36;;;;;;;1297.47;182.27;;;5.50;99.90;;;;;;5027837;28;20238;-52
2023/01/15 11:33:06;;;;;;;287.27;97.50;;;5.40;99.90;;;;;;5030124;28;20268;-52
2023/01/15 11:35:34;;;;;;;73.17;53.50;;;5.50;99.90;;;;;;5029604;28;20256;-52
2023/01/15 11:38:08;;;;;;;453.90;115.77;;;5.50;99.90;;;;;;5029878;28;20239;-51
2023/01/15 11:40:37;;;;;;;170.20;54.37;;;5.60;99.90;;;;;;5029449;28;20748;-51
2023/01/15 11:51:42;;;;;;;1111.67;195.40;;;5.70;99.90;;;;;;5030170;28;20216;-52
2023/01/15 11:54:13;;;;;;;122.60;38.13;;;5.70;99.90;;;;;;5041047;28;20298;-51
2023/01/15 11:56:45;;;;;;;514.93;115.43;;;5.80;99.90;;;;;;5038255;28;20224;-51
2023/01/15 11:59:18;;;;;;;294.57;83.63;;;5.70;99.90;;;;;;5045048;28;20227;-51
2023/01/15 12:01:53;;;;;;;1999.90;373.67;;;5.90;99.90;;;;;;5026033;28;20200;-51
2023/01/15 12:04:30;;;;;;;1262.60;244.70;;;6.10;99.90;;;;;;5025722;28;20215;-51
2023/01/15 12:07:00;;;;;;;1132.37;188.47;;;6.00;99.90;;;;;;5029514;28;20573;-52
2023/01/15 12:09:42;;;;;;;849.20;181.97;;;6.10;99.90;;;;;;5025110;28;20264;-50
2023/01/15 12:12:21;;;;;;;897.63;232.40;;;6.20;99.90;;;;;;5027363;28;20248;-53
2023/01/15 12:15:12;;;;;;;1078.30;167.93;;;6.30;99.90;;;;;;5018623;28;20247;-52
2023/01/15 12:18:04;;;;;;;358.40;88.63;;;6.40;99.90;;;;;;5029285;28;20737;-52
2023/01/15 12:20:40;;;;;;;237.80;60.93;;;6.50;99.90;;;;;;5019921;28;20240;-52
2023/01/15 12:23:35;;;;;;;180.07;58.47;;;6.60;99.90;;;;;;5017428;28;20638;-53
2023/01/15 12:26:16;;;;;;;1999.90;481.40;;;6.70;99.90;;;;;;5015624;28;20202;-51
2023/01/15 12:28:53;;;;;;;650.13;158.53;;;6.60;99.90;;;;;;5028065;28;20235;-52
2023/01/15 12:31:27;;;;;;;1438.47;290.67;;;6.60;99.90;;;;;;5021119;28;20256;-52
2023/01/15 12:34:00;;;;;;;1038.47;198.43;;;6.60;99.90;;;;;;5028851;28;20675;-51
2023/01/15 12:36:33;;;;;;;1337.20;278.27;;;6.60;99.90;;;;;;5028419;28;20223;-52
2023/01/15 12:39:04;;;;;;;1999.90;545.47;;;6.50;99.90;;;;;;5029308;28;20896;-52
2023/01/15 12:47:24;;;;;;;1243.00;259.70;;;6.30;99.90;;;;;;5021401;28;20282;-51
2023/01/15 12:49:59;;;;;;;173.93;99.87;;;6.30;99.90;;;;;;5026580;28;20838;-51
2023/01/15 12:52:34;;;;;;;215.67;116.30;;;6.30;99.90;;;;;;5028858;28;20204;-52
2023/01/15 12:55:08;;;;;;;817.00;195.53;;;6.30;99.90;;;;;;5028712;28;20241;-52
2023/01/15 12:57:39;;;;;;;823.27;169.23;;;6.30;99.90;;;;;;5029087;28;20629;-51
2023/01/15 13:00:14;;;;;;;1420.70;309.57;;;6.30;99.90;;;;;;5028927;28;20229;-52
2023/01/15 13:03:00;;;;;;;1309.67;313.57;;;6.30;99.90;;;;;;5029105;28;20240;-51
2023/01/15 13:05:31;;;;;;;506.23;117.47;;;6.30;99.90;;;;;;5039216;28;20234;-51
2023/01/15 13:08:05;;;;;;;1969.67;423.83;;;6.40;99.90;;;;;;5028824;28;20255;-51
2023/01/15 13:10:35;;;;;;;449.90;131.17;;;6.30;99.90;;;;;;5028628;28;20239;-51
2023/01/15 13:13:16;;;;;;;495.60;189.13;;;6.30;99.90;;;;;;5028459;28;20673;-52
2023/01/15 13:16:01;;;;;;;721.27;160.50;;;6.30;99.90;;;;;;5039229;28;20692;-51
2023/01/15 13:18:35;;;;;;;145.07;77.10;;;6.30;99.90;;;;;;5041191;28;20301;-51
2023/01/15 13:21:09;;;;;;;70.27;48.77;;;6.30;99.90;;;;;;5018491;28;20212;-51
2023/01/15 13:23:51;;;;;;;33.43;23.27;;;6.40;99.90;;;;;;5034142;28;20292;-51
2023/01/15 13:26:44;;;;;;;1916.20;425.27;;;6.40;99.90;;;;;;5029108;28;20648;-59